createdAt,value
2023-04-24T00:02:12.163Z,13.40
2023-04-24T00:04:42.760Z,13.50
2023-04-24T00:07:10.989Z,13.50
2023-04-24T00:09:38.058Z,13.60
2023-04-24T00:12:05.668Z,13.70
2023-04-24T00:14:32.972Z,13.60
2023-04-24T00:17:00.076Z,13.70
2023-04-24T00:19:27.040Z,13.80
2023-04-24T00:21:54.950Z,13.70
2023-04-24T00:24:22.339Z,13.70
2023-04-24T00:26:49.458Z,13.70
2023-04-24T00:29:16.309Z,13.90
2023-04-24T00:31:43.221Z,13.80
2023-04-24T00:34:10.176Z,13.80
2023-04-24T00:36:37.061Z,13.70
2023-04-24T00:39:04.275Z,13.90
2023-04-24T00:41:31.556Z,13.80
2023-04-24T00:43:58.368Z,13.60
2023-04-24T00:46:25.450Z,13.50
2023-04-24T00:48:52.692Z,13.50
2023-04-24T00:51:19.738Z,13.40
2023-04-24T00:53:47.783Z,13.40
2023-04-24T00:56:14.975Z,13.40
2023-04-24T00:58:43.008Z,13.40
2023-04-24T01:01:13.956Z,13.50
2023-04-24T01:03:41.965Z,13.50
2023-04-24T01:06:10.426Z,13.50
2023-04-24T01:08:38.071Z,13.50
2023-04-24T01:11:06.166Z,13.60
2023-04-24T01:13:34.297Z,13.70
2023-04-24T01:16:02.060Z,13.60
2023-04-24T01:18:29.582Z,13.70
2023-04-24T01:20:59.648Z,13.70
2023-04-24T01:23:27.749Z,13.60
2023-04-24T01:25:54.784Z,13.70
2023-04-24T01:28:22.084Z,13.70
2023-04-24T01:30:49.568Z,13.80
2023-04-24T01:33:17.416Z,13.70
2023-04-24T01:35:44.697Z,13.70
2023-04-24T01:38:11.896Z,13.80
2023-04-24T01:40:39.158Z,13.70
2023-04-24T01:43:06.266Z,13.70
2023-04-24T01:45:33.359Z,13.60
2023-04-24T01:48:01.274Z,13.70
2023-04-24T01:50:28.217Z,13.50
2023-04-24T01:52:55.251Z,13.50
2023-04-24T01:55:22.194Z,13.50
2023-04-24T01:57:50.022Z,13.50
2023-04-24T02:00:17.053Z,13.50
2023-04-24T02:02:47.400Z,13.50
2023-04-24T02:05:15.365Z,13.50
2023-04-24T02:07:42.224Z,13.40
2023-04-24T02:10:09.707Z,13.50
2023-04-24T02:12:36.608Z,13.60
2023-04-24T02:15:03.932Z,13.60
2023-04-24T02:17:31.894Z,13.70
2023-04-24T02:19:58.818Z,13.70
2023-04-24T02:22:25.795Z,13.60
2023-04-24T02:24:52.730Z,13.50
2023-04-24T02:27:19.604Z,13.50
2023-04-24T02:29:46.421Z,13.50
2023-04-24T02:32:13.684Z,13.50
2023-04-24T02:34:40.851Z,13.50
2023-04-24T02:37:07.723Z,13.50
2023-04-24T02:39:34.637Z,13.50
2023-04-24T02:42:02.787Z,13.40
2023-04-24T02:44:29.680Z,13.50
2023-04-24T02:46:56.659Z,13.30
2023-04-24T02:49:23.693Z,13.30
2023-04-24T02:51:50.623Z,13.20
2023-04-24T02:54:17.699Z,13.20
2023-04-24T02:56:44.683Z,13.20
2023-04-24T02:59:11.716Z,13.20
2023-04-24T03:01:38.714Z,13.30
2023-04-24T03:04:05.843Z,13.40
2023-04-24T03:06:33.912Z,13.40
2023-04-24T03:09:00.900Z,13.30
2023-04-24T03:11:27.933Z,13.40
2023-04-24T03:13:54.769Z,13.40
2023-04-24T03:16:21.694Z,13.40
2023-04-24T03:18:48.613Z,13.40
2023-04-24T03:21:15.482Z,13.50
2023-04-24T03:23:42.364Z,13.50
2023-04-24T03:26:09.296Z,13.60
2023-04-24T03:28:36.180Z,13.70
2023-04-24T03:31:04.679Z,13.60
2023-04-24T03:33:31.588Z,13.70
2023-04-24T03:35:58.506Z,13.70
2023-04-24T03:38:25.523Z,13.80
2023-04-24T03:40:52.325Z,14.00
2023-04-24T03:43:19.181Z,14.00
2023-04-24T03:45:46.176Z,14.20
2023-04-24T03:48:13.121Z,14.40
2023-04-24T03:50:39.916Z,15.00
2023-04-24T03:53:06.875Z,16.20
2023-04-24T03:55:33.765Z,17.10
2023-04-24T03:58:00.798Z,17.90
2023-04-24T04:00:28.628Z,18.20
2023-04-24T04:02:56.298Z,18.60
2023-04-24T04:05:23.541Z,19.10
2023-04-24T04:07:50.591Z,19.80
2023-04-24T04:10:18.560Z,20.40
2023-04-24T04:12:45.942Z,20.90
2023-04-24T04:15:12.925Z,21.20
2023-04-24T04:17:39.830Z,21.40
2023-04-24T04:20:10.461Z,21.20
2023-04-24T04:22:37.907Z,21.70
2023-04-24T04:25:05.498Z,22.40
2023-04-24T04:27:33.466Z,23.00
2023-04-24T04:30:05.549Z,23.60
2023-04-24T04:32:34.299Z,24.00
2023-04-24T04:35:04.589Z,24.30
2023-04-24T04:37:32.414Z,24.50
2023-04-24T04:39:59.484Z,24.70
2023-04-24T04:42:27.952Z,24.80
2023-04-24T04:44:55.010Z,24.70
2023-04-24T04:47:25.837Z,24.00
2023-04-24T04:49:52.999Z,23.80
2023-04-24T04:52:20.506Z,23.90
2023-04-24T04:54:47.539Z,24.30
2023-04-24T04:57:14.485Z,24.70
2023-04-24T04:59:42.448Z,24.90
2023-04-24T05:02:10.892Z,25.30
2023-04-24T05:04:38.147Z,25.20
2023-04-24T05:07:05.202Z,25.30
2023-04-24T05:09:32.074Z,25.50
2023-04-24T05:11:58.955Z,25.30
2023-04-24T05:14:25.906Z,25.10
2023-04-24T05:16:52.866Z,25.10
2023-04-24T05:19:19.823Z,24.70
2023-04-24T05:21:46.702Z,24.00
2023-04-24T05:24:13.632Z,22.60
2023-04-24T05:26:40.460Z,21.80
2023-04-24T05:29:07.452Z,21.10
2023-04-24T05:31:36.900Z,20.70
2023-04-24T05:34:03.964Z,19.90
2023-04-24T05:36:31.985Z,19.50
2023-04-24T05:38:58.833Z,19.10
2023-04-24T05:41:26.104Z,19.20
2023-04-24T05:43:53.040Z,19.20
2023-04-24T05:46:20.013Z,18.50
2023-04-24T05:48:47.162Z,18.50
2023-04-24T05:51:14.014Z,18.10
2023-04-24T05:53:40.883Z,18.60
2023-04-24T05:56:07.805Z,19.40
2023-04-24T05:58:34.712Z,20.40
2023-04-24T06:01:03.008Z,21.30
2023-04-24T06:03:30.038Z,22.30
2023-04-24T06:05:57.119Z,22.90
2023-04-24T06:08:24.074Z,23.60
2023-04-24T06:10:51.127Z,23.70
2023-04-24T06:13:18.122Z,23.40
2023-04-24T06:15:45.291Z,22.90
2023-04-24T06:18:13.645Z,23.10
2023-04-24T06:20:41.048Z,22.80
2023-04-24T06:23:08.011Z,22.50
2023-04-24T06:25:41.157Z,22.80
2023-04-24T06:28:11.029Z,23.10
2023-04-24T06:30:37.959Z,22.50
2023-04-24T06:33:16.759Z,22.40
2023-04-24T06:35:46.809Z,21.90
2023-04-24T06:38:13.781Z,21.50
2023-04-24T06:40:40.676Z,21.90
2023-04-24T06:43:07.643Z,21.80
2023-04-24T06:45:34.792Z,22.20
2023-04-24T06:48:01.896Z,22.90
2023-04-24T06:50:28.847Z,23.50
2023-04-24T06:52:55.668Z,24.00
2023-04-24T06:55:22.555Z,24.10
2023-04-24T06:57:49.528Z,23.80
2023-04-24T07:00:17.147Z,23.90
2023-04-24T07:02:44.389Z,23.50
2023-04-24T07:05:13.949Z,22.40
2023-04-24T07:07:41.279Z,22.20
2023-04-24T07:10:09.603Z,22.30
2023-04-24T07:12:36.904Z,22.20
2023-04-24T07:15:04.309Z,22.70
2023-04-24T07:17:31.427Z,22.90
2023-04-24T07:19:58.397Z,22.80
2023-04-24T07:22:25.704Z,22.50
2023-04-24T07:24:52.669Z,22.10
2023-04-24T07:27:19.550Z,22.40
2023-04-24T07:29:46.863Z,22.20
2023-04-24T07:32:13.914Z,22.70
2023-04-24T07:34:41.076Z,21.70
2023-04-24T07:37:08.014Z,21.10
2023-04-24T07:39:35.402Z,21.30
2023-04-24T07:42:03.376Z,21.30
2023-04-24T07:44:30.249Z,21.70
2023-04-24T07:46:57.606Z,22.00
2023-04-24T07:49:25.110Z,22.40
2023-04-24T07:51:52.068Z,23.00
2023-04-24T07:54:19.098Z,22.50
2023-04-24T07:56:46.267Z,22.70
2023-04-24T07:59:13.256Z,23.50
2023-04-24T08:01:40.260Z,24.30
2023-04-24T08:04:07.295Z,24.60
2023-04-24T08:06:34.584Z,24.30
2023-04-24T08:09:01.841Z,24.10
2023-04-24T08:11:29.144Z,22.60
2023-04-24T08:13:56.167Z,22.30
2023-04-24T08:16:25.077Z,22.60
2023-04-24T08:18:52.335Z,22.30
2023-04-24T08:21:19.918Z,22.70
2023-04-24T08:23:47.050Z,23.10
2023-04-24T08:26:14.443Z,21.90
2023-04-24T08:28:41.497Z,20.90
2023-04-24T08:31:08.447Z,20.60
2023-04-24T08:33:36.054Z,20.50
2023-04-24T08:36:07.251Z,20.60
2023-04-24T08:38:35.098Z,20.60
2023-04-24T08:41:02.848Z,21.00
2023-04-24T08:43:30.207Z,20.90
2023-04-24T08:45:59.552Z,20.70
2023-04-24T08:48:31.705Z,20.80
2023-04-24T08:50:59.913Z,21.10
2023-04-24T08:53:27.694Z,21.50
2023-04-24T08:55:57.813Z,21.70
2023-04-24T08:58:27.644Z,21.60
2023-04-24T09:00:58.676Z,21.60
2023-04-24T09:03:28.258Z,22.10
2023-04-24T09:05:56.432Z,22.30
2023-04-24T09:08:26.658Z,22.60
2023-04-24T09:10:54.106Z,21.70
2023-04-24T09:13:24.372Z,20.90
2023-04-24T09:15:51.431Z,19.90
2023-04-24T09:18:18.749Z,19.20
2023-04-24T09:21:07.586Z,18.90
2023-04-24T09:23:34.625Z,18.80
2023-04-24T09:26:03.387Z,18.70
2023-04-24T09:28:38.824Z,18.60
2023-04-24T09:31:16.836Z,18.60
2023-04-24T09:33:58.074Z,18.70
2023-04-24T09:36:41.968Z,19.30
2023-04-24T09:39:17.033Z,19.90
2023-04-24T09:41:55.708Z,20.20
2023-04-24T09:44:28.040Z,20.90
2023-04-24T09:46:55.985Z,21.40
2023-04-24T09:49:31.080Z,21.70
2023-04-24T09:52:12.576Z,21.90
2023-04-24T09:54:40.634Z,21.90
2023-04-24T09:57:10.539Z,21.50
2023-04-24T09:59:45.398Z,21.30
2023-04-24T10:02:20.952Z,20.90
2023-04-24T10:04:58.135Z,21.30
2023-04-24T10:07:27.465Z,21.50
2023-04-24T10:09:54.966Z,21.60
2023-04-24T10:12:26.356Z,21.40
2023-04-24T10:14:54.357Z,20.80
2023-04-24T10:17:23.115Z,20.10
2023-04-24T10:19:50.905Z,20.10
2023-04-24T10:22:19.216Z,19.90
2023-04-24T10:24:48.477Z,19.70
2023-04-24T10:27:16.616Z,19.80
2023-04-24T10:29:45.973Z,19.60
2023-04-24T10:32:12.968Z,19.50
2023-04-24T10:34:39.920Z,19.80
2023-04-24T10:37:07.150Z,20.20
2023-04-24T10:39:40.479Z,20.60
2023-04-24T10:42:17.105Z,20.80
2023-04-24T10:44:44.111Z,20.50
2023-04-24T10:47:17.854Z,19.90
2023-04-24T10:49:44.951Z,19.50
2023-04-24T10:52:13.184Z,19.60
2023-04-24T10:54:46.579Z,19.90
2023-04-24T10:57:19.627Z,20.20
2023-04-24T10:59:48.004Z,20.20
2023-04-24T11:02:18.859Z,19.90
2023-04-24T11:04:46.792Z,19.80
2023-04-24T11:07:24.727Z,19.50
2023-04-24T11:10:02.067Z,19.50
2023-04-24T11:12:28.987Z,19.90
2023-04-24T11:14:59.581Z,20.10
2023-04-24T11:17:35.300Z,20.00
2023-04-24T11:20:26.790Z,19.90
2023-04-24T11:22:56.548Z,20.10
2023-04-24T11:25:24.194Z,20.60
2023-04-24T11:27:51.643Z,21.00
2023-04-24T11:30:20.474Z,21.40
2023-04-24T11:32:52.375Z,21.40
2023-04-24T11:35:26.110Z,21.10
2023-04-24T11:38:13.070Z,20.70
2023-04-24T11:40:41.804Z,20.70
2023-04-24T11:43:10.384Z,20.00
2023-04-24T11:45:37.627Z,19.70
2023-04-24T11:48:04.942Z,19.90
2023-04-24T11:50:32.032Z,19.80
2023-04-24T11:53:00.108Z,19.80
2023-04-24T11:55:29.518Z,19.30
2023-04-24T11:57:59.271Z,19.20
2023-04-24T12:00:30.400Z,19.30
2023-04-24T12:03:11.274Z,19.30
2023-04-24T12:05:39.716Z,19.20
2023-04-24T12:08:06.947Z,18.70
2023-04-24T12:10:35.668Z,18.30
2023-04-24T12:13:02.809Z,18.30
2023-04-24T12:15:29.886Z,18.20
2023-04-24T12:17:57.339Z,18.20
2023-04-24T12:20:32.758Z,18.30
2023-04-24T12:23:01.685Z,18.40
2023-04-24T12:25:30.592Z,18.50
2023-04-24T12:28:14.428Z,18.50
2023-04-24T12:30:47.015Z,18.40
2023-04-24T12:33:14.236Z,18.30
2023-04-24T12:35:42.110Z,18.00
2023-04-24T12:38:16.738Z,17.90
2023-04-24T12:40:45.045Z,17.90
2023-04-24T12:43:19.644Z,17.70
2023-04-24T12:45:47.375Z,17.70
2023-04-24T12:48:17.808Z,17.70
2023-04-24T12:50:47.016Z,17.60
2023-04-24T12:53:16.464Z,17.50
2023-04-24T12:55:43.582Z,17.60
2023-04-24T12:58:10.555Z,17.70
2023-04-24T13:00:38.386Z,17.70
2023-04-24T13:03:06.176Z,17.60
2023-04-24T13:05:33.434Z,17.60
2023-04-24T13:08:00.381Z,17.60
2023-04-24T13:10:27.393Z,17.80
2023-04-24T13:12:54.424Z,17.90
2023-04-24T13:15:21.397Z,17.90
2023-04-24T13:17:48.475Z,17.80
2023-04-24T13:20:15.473Z,17.70
2023-04-24T13:22:42.536Z,17.80
2023-04-24T13:25:10.222Z,17.90
2023-04-24T13:27:39.315Z,18.00
2023-04-24T13:30:06.935Z,18.00
2023-04-24T13:32:34.789Z,18.00
2023-04-24T13:35:01.882Z,18.60
2023-04-24T13:37:28.760Z,19.20
2023-04-24T13:39:55.662Z,19.70
2023-04-24T13:42:22.614Z,20.10
2023-04-24T13:44:49.529Z,20.40
2023-04-24T13:47:16.415Z,20.60
2023-04-24T13:49:43.301Z,20.60
2023-04-24T13:52:11.376Z,20.70
2023-04-24T13:54:38.299Z,20.40
2023-04-24T13:57:05.358Z,20.20
2023-04-24T13:59:32.357Z,20.20
2023-04-24T14:01:59.302Z,20.40
2023-04-24T14:04:26.629Z,20.50
2023-04-24T14:06:53.717Z,20.70
2023-04-24T14:09:20.809Z,20.50
2023-04-24T14:11:47.852Z,20.10
2023-04-24T14:14:14.800Z,19.70
2023-04-24T14:16:43.185Z,19.50
2023-04-24T14:19:10.088Z,19.20
2023-04-24T14:21:36.985Z,19.00
2023-04-24T14:24:04.101Z,18.80
2023-04-24T14:26:31.245Z,18.80
2023-04-24T14:29:11.694Z,18.90
2023-04-24T14:31:41.993Z,18.70
2023-04-24T14:34:08.946Z,18.60
2023-04-24T14:36:36.159Z,18.30
2023-04-24T14:39:07.247Z,18.30
2023-04-24T14:41:36.972Z,18.40
2023-04-24T14:44:04.753Z,18.40
2023-04-24T14:46:32.550Z,18.50
2023-04-24T14:48:59.558Z,18.40
2023-04-24T14:51:26.618Z,18.40
2023-04-24T14:53:53.720Z,18.60
2023-04-24T14:56:20.658Z,18.60
2023-04-24T14:58:47.629Z,18.80
2023-04-24T15:01:14.571Z,18.80
2023-04-24T15:03:41.570Z,18.90
2023-04-24T15:06:08.574Z,18.80
2023-04-24T15:08:35.621Z,19.00
2023-04-24T15:11:02.999Z,19.00
2023-04-24T15:13:29.943Z,19.00
2023-04-24T15:15:56.792Z,19.00
2023-04-24T15:18:23.693Z,19.00
2023-04-24T15:20:50.883Z,19.00
2023-04-24T15:23:17.740Z,19.00
2023-04-24T15:25:44.656Z,18.90
2023-04-24T15:28:11.649Z,18.70
2023-04-24T15:30:38.600Z,18.70
2023-04-24T15:33:05.805Z,18.70
2023-04-24T15:35:32.702Z,18.80
2023-04-24T15:37:59.592Z,18.80
2023-04-24T15:40:26.661Z,18.80
2023-04-24T15:42:53.499Z,18.70
2023-04-24T15:45:20.741Z,18.60
2023-04-24T15:47:47.691Z,18.60
2023-04-24T15:50:16.927Z,18.60
2023-04-24T15:52:44.401Z,18.40
2023-04-24T15:55:11.582Z,18.20
2023-04-24T15:57:38.865Z,18.10
2023-04-24T16:00:07.400Z,18.20
2023-04-24T16:02:34.741Z,17.90
2023-04-24T16:05:01.798Z,17.90
2023-04-24T16:07:28.712Z,17.80
2023-04-24T16:09:55.930Z,17.70
2023-04-24T16:12:23.008Z,17.70
2023-04-24T16:14:49.895Z,17.60
2023-04-24T16:17:16.780Z,17.50
2023-04-24T16:19:43.614Z,17.50
2023-04-24T16:22:10.625Z,17.60
2023-04-24T16:24:37.559Z,17.50
2023-04-24T16:27:04.556Z,17.50
2023-04-24T16:29:32.378Z,17.40
2023-04-24T16:31:59.422Z,17.50
2023-04-24T16:34:26.442Z,17.40
2023-04-24T16:36:53.531Z,17.40
2023-04-24T16:39:21.286Z,17.30
2023-04-24T16:41:49.778Z,17.30
2023-04-24T16:44:16.645Z,17.20
2023-04-24T16:46:43.563Z,17.20
2023-04-24T16:49:11.094Z,17.30
2023-04-24T16:51:38.076Z,17.20
2023-04-24T16:54:05.093Z,17.10
2023-04-24T16:56:32.042Z,17.00
2023-04-24T16:58:59.248Z,16.90
2023-04-24T17:01:26.306Z,16.80
2023-04-24T17:03:53.380Z,16.80
2023-04-24T17:06:20.821Z,16.70
2023-04-24T17:08:47.921Z,16.80
2023-04-24T17:11:15.085Z,16.70
2023-04-24T17:13:42.060Z,16.70
2023-04-24T17:16:09.039Z,16.60
2023-04-24T17:18:36.093Z,16.70
2023-04-24T17:21:03.018Z,16.70
2023-04-24T17:23:30.025Z,16.70
2023-04-24T17:25:56.913Z,16.60
2023-04-24T17:28:33.891Z,16.50
2023-04-24T17:31:01.116Z,16.50
2023-04-24T17:33:29.143Z,16.50
2023-04-24T17:35:56.396Z,16.30
2023-04-24T17:38:23.641Z,16.30
2023-04-24T17:40:53.130Z,16.30
2023-04-24T17:43:24.360Z,16.20
2023-04-24T17:45:53.449Z,16.10
2023-04-24T17:48:20.538Z,16.10
2023-04-24T17:50:47.512Z,16.00
2023-04-24T17:53:14.601Z,16.00
2023-04-24T17:55:46.338Z,16.00
2023-04-24T17:58:14.050Z,16.00
2023-04-24T18:00:41.649Z,15.90
2023-04-24T18:03:10.338Z,15.80
2023-04-24T18:05:39.097Z,15.80
2023-04-24T18:08:06.687Z,15.80
2023-04-24T18:10:37.473Z,15.90
2023-04-24T18:13:05.088Z,15.80
2023-04-24T18:15:32.573Z,15.80
2023-04-24T18:17:59.721Z,15.80
2023-04-24T18:20:26.942Z,15.80
2023-04-24T18:22:54.463Z,15.70
2023-04-24T18:25:26.983Z,15.70
2023-04-24T18:27:56.057Z,15.70
2023-04-24T18:30:24.299Z,15.80
2023-04-24T18:32:53.378Z,15.60
2023-04-24T18:35:21.600Z,15.60
2023-04-24T18:37:49.044Z,15.60
2023-04-24T18:40:16.754Z,15.50
2023-04-24T18:42:44.626Z,15.60
2023-04-24T18:45:14.646Z,15.60
2023-04-24T18:47:42.541Z,15.50
2023-04-24T18:50:10.198Z,15.40
2023-04-24T18:52:37.085Z,15.40
2023-04-24T18:55:04.814Z,15.30
2023-04-24T18:57:31.754Z,15.30
2023-04-24T18:59:58.749Z,15.30
2023-04-24T19:02:25.929Z,15.20
2023-04-24T19:04:52.921Z,15.20
2023-04-24T19:07:20.740Z,15.20
2023-04-24T19:09:47.956Z,15.20
2023-04-24T19:12:14.934Z,15.20
2023-04-24T19:14:41.910Z,15.20
2023-04-24T19:17:10.231Z,15.20
2023-04-24T19:19:37.187Z,15.20
2023-04-24T19:22:04.383Z,15.10
2023-04-24T19:24:33.391Z,15.00
2023-04-24T19:27:00.552Z,15.00
2023-04-24T19:29:27.715Z,15.00
2023-04-24T19:31:55.686Z,14.90
2023-04-24T19:34:22.634Z,14.90
2023-04-24T19:36:49.781Z,14.90
2023-04-24T19:39:16.695Z,14.90
2023-04-24T19:41:43.541Z,14.90
2023-04-24T19:44:10.683Z,14.90
2023-04-24T19:46:40.250Z,14.80
2023-04-24T19:49:07.400Z,14.80
2023-04-24T19:51:34.359Z,14.70
2023-04-24T19:54:01.780Z,14.70
2023-04-24T19:56:28.638Z,14.80
2023-04-24T19:58:55.526Z,14.70
2023-04-24T20:01:22.448Z,14.60
2023-04-24T20:03:49.526Z,14.60
2023-04-24T20:06:16.497Z,14.70
2023-04-24T20:08:43.335Z,14.60
2023-04-24T20:11:10.327Z,14.60
2023-04-24T20:13:37.186Z,14.70
2023-04-24T20:16:04.622Z,14.60
2023-04-24T20:18:31.698Z,14.60
2023-04-24T20:20:59.957Z,14.50
2023-04-24T20:23:27.390Z,14.50
2023-04-24T20:25:58.431Z,14.60
2023-04-24T20:28:31.816Z,14.60
2023-04-24T20:30:59.014Z,14.60
2023-04-24T20:33:28.004Z,14.50
2023-04-24T20:35:55.657Z,14.50
2023-04-24T20:38:22.887Z,14.50
2023-04-24T20:40:57.746Z,14.50
2023-04-24T20:43:28.804Z,14.30
2023-04-24T20:45:58.087Z,14.30
2023-04-24T20:48:26.233Z,14.40
2023-04-24T20:50:56.147Z,14.10
2023-04-24T20:53:23.265Z,14.20
2023-04-24T20:55:50.442Z,14.20
2023-04-24T20:58:18.758Z,14.10
2023-04-24T21:00:47.012Z,14.10
2023-04-24T21:03:14.326Z,14.10
2023-04-24T21:05:41.389Z,14.00
2023-04-24T21:08:08.414Z,14.00
2023-04-24T21:10:35.478Z,13.90
2023-04-24T21:13:02.400Z,13.90
2023-04-24T21:15:29.534Z,13.90
2023-04-24T21:17:56.903Z,13.90
2023-04-24T21:20:25.281Z,13.80
2023-04-24T21:22:52.376Z,13.70
2023-04-24T21:25:19.369Z,13.70
2023-04-24T21:27:46.290Z,13.60
2023-04-24T21:30:13.709Z,13.50
2023-04-24T21:32:40.750Z,13.60
2023-04-24T21:35:08.883Z,13.60
2023-04-24T21:37:36.899Z,13.50
2023-04-24T21:40:05.061Z,13.50
2023-04-24T21:42:32.060Z,13.50
2023-04-24T21:44:59.372Z,13.40
2023-04-24T21:47:26.349Z,13.30
2023-04-24T21:49:53.261Z,13.40
2023-04-24T21:52:20.302Z,13.40
2023-04-24T21:54:47.201Z,13.30
2023-04-24T21:57:14.206Z,13.40
2023-04-24T21:59:41.172Z,13.30
2023-04-24T22:02:08.168Z,13.30
2023-04-24T22:04:35.102Z,13.30
2023-04-24T22:07:02.076Z,13.30
2023-04-24T22:09:29.070Z,13.10
2023-04-24T22:11:55.963Z,13.10
2023-04-24T22:14:22.849Z,13.10
2023-04-24T22:16:50.363Z,13.10
2023-04-24T22:19:17.313Z,13.10
2023-04-24T22:21:44.530Z,13.20
2023-04-24T22:24:11.493Z,13.10
2023-04-24T22:26:38.520Z,13.10
2023-04-24T22:29:05.409Z,13.00
2023-04-24T22:31:36.548Z,12.90
2023-04-24T22:34:03.685Z,12.90
2023-04-24T22:36:31.703Z,12.90
2023-04-24T22:38:58.996Z,12.80
2023-04-24T22:41:26.245Z,12.90
2023-04-24T22:43:53.164Z,12.90
2023-04-24T22:46:20.109Z,13.00
2023-04-24T22:48:49.192Z,13.10
2023-04-24T22:51:18.238Z,13.00
2023-04-24T22:53:45.374Z,13.00
2023-04-24T22:56:12.360Z,13.00
2023-04-24T22:58:39.332Z,13.00
2023-04-24T23:01:06.391Z,13.00
2023-04-24T23:03:33.726Z,12.90
2023-04-24T23:06:00.711Z,12.90
2023-04-24T23:08:27.605Z,12.90
2023-04-24T23:10:54.582Z,12.80
2023-04-24T23:13:21.506Z,12.80
2023-04-24T23:15:48.981Z,12.80
2023-04-24T23:18:15.853Z,12.80
2023-04-24T23:20:42.771Z,12.90
2023-04-24T23:23:09.975Z,12.90
2023-04-24T23:25:37.093Z,13.00
2023-04-24T23:28:04.014Z,12.80
2023-04-24T23:30:31.095Z,12.80
2023-04-24T23:32:58.055Z,12.80
2023-04-24T23:35:25.901Z,12.80
2023-04-24T23:37:53.207Z,12.70
2023-04-24T23:40:20.177Z,12.60
2023-04-24T23:42:53.960Z,12.70
2023-04-24T23:45:26.861Z,12.80
2023-04-24T23:47:53.789Z,12.80
2023-04-24T23:50:20.846Z,12.80
2023-04-24T23:52:47.765Z,12.80
2023-04-24T23:55:14.698Z,12.70
2023-04-24T23:57:42.053Z,12.60
